Warman, Minnesota
Current Conditions -  °F | °C
As of 12:35 AM on Friday 31 Oct 2014 (Local Time) from KJMR Reporting Station
Clear Clear  
Wind Chill: 21°   Ceiling: Unl
Heat Index: 30°   Visibility: 10mi
Dew Point: 18°   Wind: 10mph
Humidity: 60%   Direction: 360°N
Pressure: 30.41"   Gusts: 21mph
Location:  45.9652°N, 93.2874°W
Report Text: KJMR 310535Z AUTO 36009G18KT 10SM CLR M01/M08 A3041 RMK AO2
Loading
Personal Weather Stations






























Interactive Weather Map
Tropical Storm Tracking
New forecast layout! Learn more

10-Day Weather Forecast

Advertisements
Track Severe Weather on mobile